createdAt,value
2018-09-17T00:01:07.431Z,60409.07
2018-09-17T00:03:35.618Z,60399.92
2018-09-17T00:06:03.868Z,60408.05
2018-09-17T00:08:32.079Z,60393.82
2018-09-17T00:11:00.278Z,60396.87
2018-09-17T00:13:28.517Z,60389.76
2018-09-17T00:15:56.715Z,60414.14
2018-09-17T00:18:24.938Z,60368.42
2018-09-17T00:20:53.175Z,60405.00
2018-09-17T00:23:21.410Z,60421.26
2018-09-17T00:25:49.595Z,60402.97
2018-09-17T00:28:17.792Z,60409.07
2018-09-17T00:30:45.996Z,60386.71
2018-09-17T00:33:14.245Z,60399.92
2018-09-17T00:35:42.454Z,60409.07
2018-09-17T00:38:10.967Z,60399.92
2018-09-17T00:40:39.204Z,60412.11
2018-09-17T00:43:07.459Z,60418.21
2018-09-17T00:45:35.691Z,60420.24
2018-09-17T00:48:03.927Z,60422.27
2018-09-17T00:50:32.162Z,60429.39
2018-09-17T00:53:00.411Z,60383.66
2018-09-17T00:55:28.650Z,60410.08
2018-09-17T00:57:56.975Z,60406.02
2018-09-17T01:00:25.103Z,60411.10
2018-09-17T01:02:53.354Z,60419.23
2018-09-17T01:05:21.618Z,60405.00
2018-09-17T01:07:49.847Z,60438.53
2018-09-17T01:10:18.083Z,60393.82
2018-09-17T01:12:46.293Z,60418.21
2018-09-17T01:15:14.577Z,60421.26
2018-09-17T01:17:42.780Z,60412.11
2018-09-17T01:20:11.007Z,60427.36
2018-09-17T01:22:39.254Z,60401.95
2018-09-17T01:25:07.503Z,60385.69
2018-09-17T01:27:35.740Z,60398.90
2018-09-17T01:30:04.048Z,60411.10
2018-09-17T01:32:32.266Z,60415.16
2018-09-17T01:35:00.499Z,60401.95
2018-09-17T01:37:28.788Z,60417.20
2018-09-17T01:39:57.235Z,60420.24
2018-09-17T01:42:25.515Z,60424.31
2018-09-17T01:44:53.752Z,60425.32
2018-09-17T01:47:22.042Z,60415.16
2018-09-17T01:49:50.323Z,60434.47
2018-09-17T01:52:18.565Z,60415.16
2018-09-17T01:54:46.769Z,60431.42
2018-09-17T01:57:14.970Z,60424.31
2018-09-17T01:59:43.207Z,60422.27
2018-09-17T02:02:11.423Z,60425.32
2018-09-17T02:04:39.767Z,60421.26
2018-09-17T02:07:08.456Z,60425.32
2018-09-17T02:09:39.995Z,60409.07
2018-09-17T02:12:10.027Z,60441.58
2018-09-17T02:14:38.538Z,60413.13
2018-09-17T02:17:07.154Z,60430.40
2018-09-17T02:19:35.440Z,60426.34
2018-09-17T02:22:03.683Z,60431.42
2018-09-17T02:24:31.874Z,60421.26
2018-09-17T02:27:00.167Z,60434.47
2018-09-17T02:29:28.444Z,60411.10
2018-09-17T02:31:56.707Z,60431.42
2018-09-17T02:34:24.927Z,60446.66
2018-09-17T02:36:53.555Z,60425.32
2018-09-17T02:39:21.781Z,60417.20
2018-09-17T02:41:50.101Z,60435.48
2018-09-17T02:44:18.350Z,60416.18
2018-09-17T02:46:46.646Z,60430.40
2018-09-17T02:49:14.908Z,60403.98
2018-09-17T02:51:43.204Z,60411.10
2018-09-17T02:54:11.445Z,60432.44
2018-09-17T02:56:39.653Z,60441.58
2018-09-17T02:59:07.890Z,60431.42
2018-09-17T03:01:36.106Z,60410.08
2018-09-17T03:04:04.298Z,60418.21
2018-09-17T03:06:32.535Z,60412.11
2018-09-17T03:09:00.741Z,60416.18
2018-09-17T03:11:28.971Z,60441.58
2018-09-17T03:13:57.227Z,60445.65
2018-09-17T03:16:25.435Z,60437.52
2018-09-17T03:18:54.979Z,60412.11
2018-09-17T03:21:23.201Z,60411.10
2018-09-17T03:23:51.415Z,60427.36
2018-09-17T03:26:20.015Z,60449.71
2018-09-17T03:28:48.248Z,60411.10
2018-09-17T03:31:16.499Z,60460.89
2018-09-17T03:33:44.843Z,60434.47
2018-09-17T03:36:13.094Z,60452.76
2018-09-17T03:38:48.378Z,60433.45
2018-09-17T03:41:17.556Z,60444.63
2018-09-17T03:43:47.995Z,60412.11
2018-09-17T03:46:16.301Z,60425.32
2018-09-17T03:48:44.505Z,60423.29
2018-09-17T03:51:13.228Z,60472.07
2018-09-17T03:53:41.707Z,60456.82
2018-09-17T03:56:09.936Z,60432.44
2018-09-17T03:58:38.123Z,60450.73
2018-09-17T04:01:06.458Z,60446.66
2018-09-17T04:03:34.691Z,60446.66
2018-09-17T04:06:02.883Z,60476.13
2018-09-17T04:08:32.192Z,60455.81
2018-09-17T04:11:00.447Z,60433.45
2018-09-17T04:13:28.644Z,60459.87
2018-09-17T04:15:56.886Z,60443.61
2018-09-17T04:18:25.151Z,60446.66
2018-09-17T04:20:53.339Z,60451.75
2018-09-17T04:23:34.045Z,60424.31
2018-09-17T04:26:03.175Z,60464.96
2018-09-17T04:28:31.356Z,60430.40
2018-09-17T04:30:59.550Z,60460.89
2018-09-17T04:33:29.193Z,60424.31
2018-09-17T04:35:57.468Z,60433.45
2018-09-17T04:38:25.651Z,60426.34
2018-09-17T04:40:54.027Z,60447.68
2018-09-17T04:43:22.200Z,60431.42
2018-09-17T04:45:50.571Z,60437.52
2018-09-17T04:48:18.778Z,60431.42
2018-09-17T04:50:46.987Z,60440.57
2018-09-17T04:53:15.194Z,60456.82
2018-09-17T04:55:43.426Z,60447.68
2018-09-17T04:58:11.714Z,60457.84
2018-09-17T05:00:39.923Z,60441.58
2018-09-17T05:03:08.104Z,60456.82
2018-09-17T05:05:36.275Z,60426.34
2018-09-17T05:08:04.475Z,60434.47
2018-09-17T05:10:32.657Z,60455.81
2018-09-17T05:13:00.896Z,60488.33
2018-09-17T05:15:29.032Z,60425.32
2018-09-17T05:17:57.208Z,60423.29
2018-09-17T05:20:25.467Z,60438.53
2018-09-17T05:22:53.679Z,60439.55
2018-09-17T05:25:21.890Z,60443.61
2018-09-17T05:27:50.075Z,60432.44
2018-09-17T05:30:18.284Z,60444.63
2018-09-17T05:32:46.783Z,60457.84
2018-09-17T05:35:14.960Z,60454.79
2018-09-17T05:37:43.159Z,60441.58
2018-09-17T05:40:11.344Z,60415.16
2018-09-17T05:42:39.551Z,60452.76
2018-09-17T05:45:07.763Z,60436.50
2018-09-17T05:47:35.947Z,60453.78
2018-09-17T05:50:04.140Z,60457.84
2018-09-17T05:52:32.298Z,60462.92
2018-09-17T05:55:00.535Z,60451.75
2018-09-17T05:57:28.720Z,60439.55
2018-09-17T05:59:56.899Z,60448.70
2018-09-17T06:02:25.084Z,60459.87
2018-09-17T06:04:53.280Z,60459.87
2018-09-17T06:07:21.472Z,60439.55
2018-09-17T06:09:50.476Z,60448.70
2018-09-17T06:12:18.901Z,60450.73
2018-09-17T06:14:47.109Z,60441.58
2018-09-17T06:17:15.402Z,60430.40
2018-09-17T06:19:43.532Z,60460.89
2018-09-17T06:22:11.711Z,60450.73
2018-09-17T06:24:39.904Z,60456.82
2018-09-17T06:27:08.100Z,60457.84
2018-09-17T06:29:36.311Z,60440.57
2018-09-17T06:32:04.501Z,60432.44
2018-09-17T06:34:32.684Z,60441.58
2018-09-17T06:37:00.865Z,60436.50
2018-09-17T06:39:29.062Z,60431.42
2018-09-17T06:41:57.255Z,60437.52
2018-09-17T06:44:25.479Z,60431.42
2018-09-17T06:46:53.625Z,60430.40
2018-09-17T06:49:21.804Z,60445.65
2018-09-17T06:51:50.073Z,60445.65
2018-09-17T06:54:18.254Z,60430.40
2018-09-17T06:56:46.448Z,60428.37
2018-09-17T06:59:14.622Z,60436.50
2018-09-17T07:01:42.823Z,60443.61
2018-09-17T07:04:11.028Z,60416.18
2018-09-17T07:06:39.206Z,60434.47
2018-09-17T07:09:08.970Z,60436.50
2018-09-17T07:11:37.169Z,60414.14
2018-09-17T07:14:05.470Z,60416.18
2018-09-17T07:16:33.648Z,60427.36
2018-09-17T07:19:01.840Z,60433.45
2018-09-17T07:21:30.325Z,60434.47
2018-09-17T07:23:58.527Z,60447.68
2018-09-17T07:26:26.731Z,60421.26
2018-09-17T07:28:54.921Z,60423.29
2018-09-17T07:31:23.103Z,60430.40
2018-09-17T07:33:51.288Z,60421.26
2018-09-17T07:36:19.523Z,60413.13
2018-09-17T07:38:47.691Z,60417.20
2018-09-17T07:41:15.883Z,60415.16
2018-09-17T07:43:44.076Z,60388.74
2018-09-17T07:46:12.295Z,60429.39
2018-09-17T07:48:40.541Z,60423.29
2018-09-17T07:51:08.730Z,60431.42
2018-09-17T07:53:36.921Z,60372.48
2018-09-17T07:56:05.127Z,60412.11
2018-09-17T07:58:33.323Z,60408.05
2018-09-17T08:01:01.515Z,60397.89
2018-09-17T08:03:29.707Z,60381.63
2018-09-17T08:05:57.887Z,60398.90
2018-09-17T08:08:26.122Z,60392.80
2018-09-17T08:10:54.294Z,60384.68
2018-09-17T08:13:22.478Z,60369.43
2018-09-17T08:15:50.671Z,60412.11
2018-09-17T08:18:18.869Z,60398.90
2018-09-17T08:20:47.047Z,60374.52
2018-09-17T08:23:15.240Z,60372.48
2018-09-17T08:25:43.423Z,60383.66
2018-09-17T08:28:11.612Z,60396.87
2018-09-17T08:30:39.811Z,60384.68
2018-09-17T08:33:08.005Z,60376.55
2018-09-17T08:35:36.247Z,60356.22
2018-09-17T08:38:04.405Z,60387.72
2018-09-17T08:40:32.586Z,60388.74
2018-09-17T08:43:00.751Z,60356.22
2018-09-17T08:45:28.965Z,60355.21
2018-09-17T08:47:57.127Z,60340.98
2018-09-17T08:50:25.308Z,60350.12
2018-09-17T08:52:53.503Z,60331.84
2018-09-17T08:55:26.953Z,60340.98
2018-09-17T08:58:01.314Z,60349.11
2018-09-17T09:00:35.275Z,60327.77
2018-09-17T09:03:08.820Z,60331.84
2018-09-17T09:05:43.127Z,60327.77
2018-09-17T09:08:11.319Z,60348.09
2018-09-17T09:10:44.862Z,60334.88
2018-09-17T09:13:18.348Z,60316.59
2018-09-17T09:15:46.532Z,60318.62
2018-09-17T09:18:14.723Z,60313.54
2018-09-17T09:20:42.920Z,60318.62
2018-09-17T09:23:11.103Z,60325.74
2018-09-17T09:25:39.288Z,60324.72
2018-09-17T09:28:07.507Z,60312.53
2018-09-17T09:30:35.682Z,60313.54
2018-09-17T09:33:03.908Z,60334.88
2018-09-17T09:35:32.084Z,60266.80
2018-09-17T09:38:00.298Z,60282.04
2018-09-17T09:40:28.475Z,60265.79
2018-09-17T09:42:56.671Z,60282.04
2018-09-17T09:45:24.872Z,60256.64
2018-09-17T09:47:53.047Z,60287.12
2018-09-17T09:50:21.243Z,60250.54
2018-09-17T09:52:49.429Z,60270.87
2018-09-17T09:55:17.621Z,60275.95
2018-09-17T09:57:45.799Z,60264.77
2018-09-17T10:00:19.435Z,60254.61
2018-09-17T10:02:48.175Z,60239.36
2018-09-17T10:05:16.543Z,60234.29
2018-09-17T10:07:44.766Z,60231.24
2018-09-17T10:10:18.300Z,60227.17
2018-09-17T10:12:52.375Z,60225.14
2018-09-17T10:15:25.920Z,60209.90
2018-09-17T10:20:01.294Z,60202.79
2018-09-17T10:22:29.463Z,60192.62
2018-09-17T10:24:57.642Z,60200.75
2018-09-17T10:27:25.881Z,60194.66
2018-09-17T10:29:54.082Z,60198.72
2018-09-17T10:32:22.235Z,60185.51
2018-09-17T10:34:50.417Z,60185.51
2018-09-17T10:37:18.603Z,60178.40
2018-09-17T10:39:46.801Z,60157.06
2018-09-17T10:42:14.975Z,60179.41
2018-09-17T10:44:43.200Z,60175.35
2018-09-17T10:47:11.409Z,60165.19
2018-09-17T10:49:39.576Z,60169.25
2018-09-17T10:52:07.808Z,60198.72
2018-09-17T10:54:36.006Z,60162.14
2018-09-17T10:57:04.207Z,60163.16
2018-09-17T10:59:32.384Z,60158.07
2018-09-17T11:02:00.558Z,60161.12
2018-09-17T11:04:28.780Z,60161.12
2018-09-17T11:06:56.955Z,60156.04
2018-09-17T11:09:25.150Z,60146.90
2018-09-17T11:11:53.311Z,60159.09
2018-09-17T11:14:21.651Z,60156.04
2018-09-17T11:16:49.859Z,60137.75
2018-09-17T11:19:18.043Z,60153.00
2018-09-17T11:21:46.231Z,60157.06
2018-09-17T11:24:14.456Z,60153.00
2018-09-17T11:26:42.618Z,60167.22
2018-09-17T11:29:10.803Z,60158.07
2018-09-17T11:31:38.995Z,60148.93
2018-09-17T11:34:07.176Z,60153.00
2018-09-17T11:36:35.375Z,60153.00
2018-09-17T11:39:04.664Z,60160.11
2018-09-17T11:41:32.851Z,60151.98
2018-09-17T11:44:01.085Z,60162.14
2018-09-17T11:46:29.272Z,60169.25
2018-09-17T11:48:57.475Z,60178.40
2018-09-17T11:51:25.700Z,60163.16
2018-09-17T11:53:53.931Z,60172.30
2018-09-17T11:56:22.043Z,60168.23
2018-09-17T11:58:50.247Z,60178.40
2018-09-17T12:01:25.461Z,60164.17
2018-09-17T12:03:58.989Z,60164.17
2018-09-17T12:06:32.542Z,60162.14
2018-09-17T12:09:00.738Z,60170.27
2018-09-17T12:11:28.918Z,60167.22
2018-09-17T12:13:57.093Z,60145.88
2018-09-17T12:16:25.272Z,60156.04
2018-09-17T12:18:53.451Z,60153.00
2018-09-17T12:21:21.662Z,60161.12
2018-09-17T12:23:49.839Z,60162.14
2018-09-17T12:26:18.147Z,60170.27
2018-09-17T12:28:46.471Z,60154.01
2018-09-17T12:31:14.645Z,60163.16
2018-09-17T12:33:42.829Z,60165.19
2018-09-17T12:36:11.062Z,60157.06
2018-09-17T12:38:39.365Z,60156.04
2018-09-17T12:41:07.630Z,60158.07
2018-09-17T12:43:35.991Z,60149.95
2018-09-17T12:46:04.153Z,60146.90
2018-09-17T12:48:32.348Z,60149.95
2018-09-17T12:51:00.864Z,60168.23
2018-09-17T12:53:29.011Z,60138.77
2018-09-17T12:55:57.252Z,60143.85
2018-09-17T12:58:25.418Z,60153.00
2018-09-17T13:00:53.638Z,60143.85
2018-09-17T13:03:22.490Z,60139.79
2018-09-17T13:05:50.646Z,60149.95
2018-09-17T13:08:19.059Z,60147.91
2018-09-17T13:10:47.318Z,60140.80
2018-09-17T13:13:15.604Z,60145.88
2018-09-17T13:15:48.929Z,60164.17
2018-09-17T13:18:17.656Z,60148.93
2018-09-17T13:20:45.872Z,60158.07
2018-09-17T13:23:14.043Z,60151.98
2018-09-17T13:25:42.300Z,60147.91
2018-09-17T13:28:11.422Z,60147.91
2018-09-17T13:30:39.638Z,60142.83
2018-09-17T13:33:07.847Z,60142.83
2018-09-17T13:35:36.044Z,60158.07
2018-09-17T13:38:04.319Z,60150.96
2018-09-17T13:40:33.174Z,60145.88
2018-09-17T13:43:01.379Z,60151.98
2018-09-17T13:45:29.572Z,60143.85
2018-09-17T13:47:57.823Z,60158.07
2018-09-17T13:50:26.015Z,60133.69
2018-09-17T13:52:54.182Z,60146.90
2018-09-17T13:55:22.344Z,60134.70
2018-09-17T13:57:50.523Z,60147.91
2018-09-17T14:00:18.771Z,60144.87
2018-09-17T14:02:46.993Z,60157.06
2018-09-17T14:05:15.231Z,60157.06
2018-09-17T14:07:43.472Z,60153.00
2018-09-17T14:10:11.707Z,60160.11
2018-09-17T14:12:39.830Z,60147.91
2018-09-17T14:15:08.028Z,60151.98
2018-09-17T14:17:36.227Z,60155.03
2018-09-17T14:20:04.431Z,60166.20
2018-09-17T14:22:32.655Z,60168.23
2018-09-17T14:25:00.853Z,60170.27
2018-09-17T14:27:29.203Z,60179.41
2018-09-17T14:29:57.384Z,60169.25
2018-09-17T14:32:30.813Z,60161.12
2018-09-17T14:34:59.000Z,60165.19
2018-09-17T14:37:27.240Z,60168.23
2018-09-17T14:39:55.383Z,60166.20
2018-09-17T14:42:23.573Z,60175.35
2018-09-17T14:44:51.754Z,60177.38
2018-09-17T14:47:19.927Z,60163.16
2018-09-17T14:49:48.081Z,60172.30
2018-09-17T14:52:16.371Z,60172.30
2018-09-17T14:54:44.700Z,60173.32
2018-09-17T14:57:12.836Z,60171.29
2018-09-17T14:59:41.002Z,60191.61
2018-09-17T15:02:09.196Z,60165.19
2018-09-17T15:04:37.381Z,60183.48
2018-09-17T15:07:05.564Z,60165.19
2018-09-17T15:09:33.752Z,60187.54
2018-09-17T15:12:01.915Z,60179.41
2018-09-17T15:14:30.234Z,60189.57
2018-09-17T15:16:58.295Z,60183.48
2018-09-17T15:19:26.471Z,60186.52
2018-09-17T15:21:54.677Z,60173.32
2018-09-17T15:24:22.846Z,60168.23
2018-09-17T15:26:51.065Z,60190.59
2018-09-17T15:29:19.250Z,60184.49
2018-09-17T15:31:47.412Z,60170.27
2018-09-17T15:34:15.640Z,60170.27
2018-09-17T15:36:43.788Z,60177.38
2018-09-17T15:39:13.381Z,60186.52
2018-09-17T15:41:41.785Z,60186.52
2018-09-17T15:44:10.291Z,60196.69
2018-09-17T15:46:38.455Z,60185.51
2018-09-17T15:49:06.809Z,60188.56
2018-09-17T15:51:35.074Z,60203.80
2018-09-17T15:54:03.258Z,60203.80
2018-09-17T15:56:31.445Z,60191.61
2018-09-17T15:59:00.528Z,60200.75
2018-09-17T16:01:28.720Z,60211.93
2018-09-17T16:03:57.203Z,60197.70
2018-09-17T16:06:25.379Z,60202.79
2018-09-17T16:08:53.593Z,60183.48
2018-09-17T16:11:21.767Z,60208.88
2018-09-17T16:13:50.015Z,60205.83
2018-09-17T16:16:18.202Z,60221.07
2018-09-17T16:18:46.383Z,60213.96
2018-09-17T16:21:14.562Z,60191.61
2018-09-17T16:23:42.738Z,60207.86
2018-09-17T16:26:10.994Z,60201.77
2018-09-17T16:28:39.184Z,60214.98
2018-09-17T16:31:07.380Z,60207.86
2018-09-17T16:33:35.610Z,60228.19
2018-09-17T16:36:03.784Z,60202.79
2018-09-17T16:38:32.001Z,60229.20
2018-09-17T16:41:00.191Z,60209.90
2018-09-17T16:43:28.405Z,60227.17
2018-09-17T16:45:56.588Z,60206.85
2018-09-17T16:48:24.814Z,60243.43
2018-09-17T16:50:53.050Z,60213.96
2018-09-17T16:53:21.311Z,60237.33
2018-09-17T16:55:49.470Z,60218.03
2018-09-17T16:58:18.712Z,60220.06
2018-09-17T17:00:46.907Z,60221.07
2018-09-17T17:03:15.104Z,60225.14
2018-09-17T17:05:43.364Z,60230.22
2018-09-17T17:08:11.592Z,60230.22
2018-09-17T17:10:39.802Z,60234.29
2018-09-17T17:13:08.111Z,60243.43
2018-09-17T17:15:36.311Z,60238.35
2018-09-17T17:18:04.834Z,60257.66
2018-09-17T17:20:33.156Z,60240.38
2018-09-17T17:23:01.360Z,60252.57
2018-09-17T17:25:29.574Z,60253.59
2018-09-17T17:27:57.848Z,60255.63
2018-09-17T17:30:26.027Z,60256.64
2018-09-17T17:32:54.232Z,60258.67
2018-09-17T17:35:22.442Z,60256.64
2018-09-17T17:37:50.624Z,60249.53
2018-09-17T17:40:18.884Z,60261.72
2018-09-17T17:42:46.994Z,60264.77
2018-09-17T17:45:15.175Z,60268.83
2018-09-17T17:47:43.399Z,60267.82
2018-09-17T17:50:11.587Z,60282.04
2018-09-17T17:52:39.776Z,60273.91
2018-09-17T17:55:08.009Z,60275.95
2018-09-17T17:57:38.370Z,60273.91
2018-09-17T18:00:08.403Z,60278.99
2018-09-17T18:02:37.605Z,60275.95
2018-09-17T18:05:06.964Z,60273.91
2018-09-17T18:07:36.289Z,60288.14
2018-09-17T18:10:05.471Z,60293.22
2018-09-17T18:12:34.807Z,60290.17
2018-09-17T18:15:03.143Z,60276.96
2018-09-17T18:17:31.339Z,60282.04
2018-09-17T18:19:59.523Z,60298.30
2018-09-17T18:22:27.903Z,60306.43
2018-09-17T18:24:56.308Z,60275.95
2018-09-17T18:27:25.312Z,60300.34
2018-09-17T18:29:53.698Z,60288.14
2018-09-17T18:32:21.929Z,60273.91
2018-09-17T18:34:51.657Z,60318.62
2018-09-17T18:37:20.515Z,60296.27
2018-09-17T18:39:48.832Z,60302.37
2018-09-17T18:42:19.330Z,60292.21
2018-09-17T18:44:48.361Z,60303.38
2018-09-17T18:47:16.508Z,60314.56
2018-09-17T18:49:44.839Z,60290.17
2018-09-17T18:52:13.042Z,60306.43
2018-09-17T18:54:41.329Z,60296.27
2018-09-17T18:57:09.584Z,60303.38
2018-09-17T18:59:37.719Z,60295.25
2018-09-17T19:02:07.571Z,60307.45
2018-09-17T19:04:35.837Z,60291.19
2018-09-17T19:07:04.022Z,60306.43
2018-09-17T19:09:37.518Z,60318.62
2018-09-17T19:12:05.889Z,60318.62
2018-09-17T19:14:39.429Z,60301.35
2018-09-17T19:17:14.163Z,60325.74
2018-09-17T19:19:43.143Z,60336.91
2018-09-17T19:22:16.880Z,60306.43
2018-09-17T19:24:44.942Z,60316.59
2018-09-17T19:27:13.755Z,60317.61
2018-09-17T19:29:42.924Z,60302.37
2018-09-17T19:32:11.380Z,60334.88
2018-09-17T19:34:40.163Z,60311.51
2018-09-17T19:37:13.745Z,60302.37
2018-09-17T19:39:47.547Z,60310.50
2018-09-17T19:42:15.824Z,60304.40
2018-09-17T19:44:48.422Z,60322.69
2018-09-17T19:47:17.372Z,60312.53
2018-09-17T19:49:47.687Z,60317.61
2018-09-17T19:52:18.217Z,60304.40
2018-09-17T19:54:46.951Z,60309.48
2018-09-17T19:57:20.531Z,60338.95
2018-09-17T19:59:52.074Z,60334.88
2018-09-17T20:02:20.571Z,60320.66
2018-09-17T20:04:53.985Z,60313.54
2018-09-17T20:07:22.279Z,60343.01
2018-09-17T20:09:50.480Z,60328.79
2018-09-17T20:12:18.642Z,60342.00
2018-09-17T20:14:46.822Z,60314.56
2018-09-17T20:17:15.214Z,60321.67
2018-09-17T20:19:43.555Z,60343.01
2018-09-17T20:22:12.284Z,60309.48
2018-09-17T20:24:41.374Z,60326.75
2018-09-17T20:27:09.888Z,60319.64
2018-09-17T20:29:38.075Z,60319.64
2018-09-17T20:32:06.270Z,60300.34
2018-09-17T20:34:34.688Z,60322.69
2018-09-17T20:37:02.864Z,60320.66
2018-09-17T20:39:31.041Z,60333.87
2018-09-17T20:41:59.510Z,60329.80
2018-09-17T20:44:27.691Z,60318.62
2018-09-17T20:46:55.891Z,60334.88
2018-09-17T20:49:24.137Z,60313.54
2018-09-17T20:51:52.240Z,60324.72
2018-09-17T20:54:20.432Z,60307.45
2018-09-17T20:56:48.619Z,60323.71
2018-09-17T20:59:16.798Z,60331.84
2018-09-17T21:01:45.100Z,60351.14
2018-09-17T21:04:13.151Z,60312.53
2018-09-17T21:06:41.330Z,60338.95
2018-09-17T21:09:10.897Z,60309.48
2018-09-17T21:11:39.144Z,60311.51
2018-09-17T21:14:07.728Z,60332.85
2018-09-17T21:16:36.316Z,60327.77
2018-09-17T21:19:04.639Z,60347.08
2018-09-17T21:21:32.771Z,60332.85
2018-09-17T21:24:01.156Z,60344.03
2018-09-17T21:26:29.332Z,60343.01
2018-09-17T21:28:57.511Z,60333.87
2018-09-17T21:31:25.688Z,60324.72
2018-09-17T21:33:53.917Z,60338.95
2018-09-17T21:36:22.096Z,60333.87
2018-09-17T21:38:50.291Z,60321.67
2018-09-17T21:41:18.466Z,60318.62
2018-09-17T21:43:46.642Z,60331.84
2018-09-17T21:46:14.839Z,60317.61
2018-09-17T21:48:43.007Z,60336.91
2018-09-17T21:51:11.188Z,60328.79
2018-09-17T21:53:39.355Z,60338.95
2018-09-17T21:56:07.543Z,60324.72
2018-09-17T21:58:35.774Z,60317.61
2018-09-17T22:01:04.655Z,60319.64
2018-09-17T22:03:34.072Z,60314.56
2018-09-17T22:06:02.279Z,60335.90
2018-09-17T22:08:30.936Z,60312.53
2018-09-17T22:10:59.107Z,60333.87
2018-09-17T22:13:27.713Z,60326.75
2018-09-17T22:15:55.890Z,60338.95
2018-09-17T22:18:24.074Z,60335.90
2018-09-17T22:20:52.264Z,60331.84
2018-09-17T22:23:20.457Z,60344.03
2018-09-17T22:25:48.630Z,60365.37
2018-09-17T22:28:16.812Z,60345.04
2018-09-17T22:30:45.012Z,60325.74
2018-09-17T22:33:13.206Z,60332.85
2018-09-17T22:35:41.391Z,60321.67
2018-09-17T22:38:09.572Z,60339.96
2018-09-17T22:40:37.757Z,60324.72
2018-09-17T22:43:06.252Z,60334.88
2018-09-17T22:45:34.443Z,60314.56
2018-09-17T22:48:02.639Z,60323.71
2018-09-17T22:50:30.819Z,60324.72
2018-09-17T22:52:59.003Z,60316.59
2018-09-17T22:55:27.184Z,60332.85
2018-09-17T22:57:55.356Z,60331.84
2018-09-17T23:00:23.788Z,60358.25
2018-09-17T23:02:51.959Z,60330.82
2018-09-17T23:05:20.175Z,60325.74
2018-09-17T23:07:48.383Z,60319.64
2018-09-17T23:10:16.547Z,60333.87
2018-09-17T23:12:44.731Z,60329.80
2018-09-17T23:15:12.922Z,60340.98
2018-09-17T23:17:41.099Z,60318.62
2018-09-17T23:20:09.280Z,60329.80
2018-09-17T23:22:37.480Z,60344.03
2018-09-17T23:25:05.721Z,60318.62
2018-09-17T23:27:33.915Z,60321.67
2018-09-17T23:30:02.107Z,60343.01
2018-09-17T23:32:30.278Z,60335.90
2018-09-17T23:34:58.459Z,60346.06
2018-09-17T23:37:26.647Z,60345.04
2018-09-17T23:39:54.832Z,60345.04
2018-09-17T23:42:23.006Z,60349.11
2018-09-17T23:44:51.182Z,60325.74
2018-09-17T23:47:19.363Z,60359.27
2018-09-17T23:49:47.526Z,60340.98
2018-09-17T23:52:15.734Z,60343.01
2018-09-17T23:54:43.980Z,60328.79
2018-09-17T23:57:12.158Z,60347.08
2018-09-17T23:59:40.344Z,60328.79
